createdAt,value
2018-11-07T00:01:08.519Z,11.99
2018-11-07T00:03:34.861Z,11.97
2018-11-07T00:06:01.182Z,11.97
2018-11-07T00:08:27.534Z,11.97
2018-11-07T00:10:53.793Z,11.97
2018-11-07T00:13:20.126Z,11.99
2018-11-07T00:15:46.455Z,11.97
2018-11-07T00:18:12.795Z,11.97
2018-11-07T00:20:39.125Z,11.97
2018-11-07T00:23:05.474Z,11.97
2018-11-07T00:25:31.774Z,11.99
2018-11-07T00:27:58.094Z,12.00
2018-11-07T00:30:24.434Z,11.98
2018-11-07T00:32:50.763Z,11.96
2018-11-07T00:35:17.176Z,11.94
2018-11-07T00:37:43.429Z,11.93
2018-11-07T00:40:09.816Z,11.91
2018-11-07T00:42:36.116Z,11.92
2018-11-07T00:45:02.418Z,11.90
2018-11-07T00:47:28.746Z,11.88
2018-11-07T00:49:55.049Z,11.86
2018-11-07T00:52:21.380Z,11.82
2018-11-07T00:54:47.713Z,11.79
2018-11-07T00:57:14.054Z,11.79
2018-11-07T00:59:40.378Z,11.80
2018-11-07T01:02:06.712Z,11.78
2018-11-07T01:04:33.039Z,11.79
2018-11-07T01:06:59.375Z,11.78
2018-11-07T01:09:25.762Z,11.75
2018-11-07T01:11:52.035Z,11.72
2018-11-07T01:14:18.342Z,11.70
2018-11-07T01:16:44.676Z,11.66
2018-11-07T01:19:10.983Z,11.65
2018-11-07T01:21:37.287Z,11.64
2018-11-07T01:24:03.614Z,11.61
2018-11-07T01:26:29.914Z,11.61
2018-11-07T01:28:56.256Z,11.60
2018-11-07T01:31:22.565Z,11.58
2018-11-07T01:33:48.868Z,11.55
2018-11-07T01:36:15.198Z,11.51
2018-11-07T01:38:41.550Z,11.51
2018-11-07T01:41:07.872Z,11.49
2018-11-07T01:43:34.181Z,11.45
2018-11-07T01:46:00.512Z,11.43
2018-11-07T01:48:26.818Z,11.42
2018-11-07T01:50:53.120Z,11.39
2018-11-07T01:53:19.514Z,11.36
2018-11-07T01:55:45.774Z,11.35
2018-11-07T01:58:12.105Z,11.36
2018-11-07T02:00:38.449Z,11.34
2018-11-07T02:03:04.779Z,11.31
2018-11-07T02:05:31.101Z,11.28
2018-11-07T02:07:57.412Z,11.26
2018-11-07T02:10:23.739Z,11.22
2018-11-07T02:12:50.071Z,11.19
2018-11-07T02:15:16.380Z,11.16
2018-11-07T02:17:42.690Z,11.15
2018-11-07T02:20:08.998Z,11.14
2018-11-07T02:22:35.305Z,11.11
2018-11-07T02:25:01.636Z,11.11
2018-11-07T02:27:27.962Z,11.07
2018-11-07T02:29:54.286Z,11.05
2018-11-07T02:32:20.625Z,11.03
2018-11-07T02:34:46.947Z,10.99
2018-11-07T02:37:13.255Z,10.95
2018-11-07T02:39:39.582Z,10.92
2018-11-07T02:42:05.899Z,10.91
2018-11-07T02:44:32.227Z,10.91
2018-11-07T02:46:58.562Z,10.91
2018-11-07T02:49:24.867Z,10.91
2018-11-07T02:51:51.175Z,10.90
2018-11-07T02:54:17.512Z,10.89
2018-11-07T02:56:43.812Z,10.88
2018-11-07T02:59:10.142Z,10.86
2018-11-07T03:01:36.466Z,10.86
2018-11-07T03:04:02.798Z,10.86
2018-11-07T03:06:29.137Z,10.92
2018-11-07T03:08:55.444Z,10.91
2018-11-07T03:11:21.770Z,10.93
2018-11-07T03:13:48.074Z,10.97
2018-11-07T03:16:14.393Z,10.98
2018-11-07T03:18:40.718Z,10.97
2018-11-07T03:21:07.025Z,10.95
2018-11-07T03:23:33.330Z,10.92
2018-11-07T03:25:59.634Z,10.91
2018-11-07T03:28:25.940Z,10.86
2018-11-07T03:30:52.262Z,10.80
2018-11-07T03:33:18.582Z,10.81
2018-11-07T03:35:44.901Z,10.81
2018-11-07T03:38:11.229Z,10.77
2018-11-07T03:40:37.533Z,10.74
2018-11-07T03:43:03.859Z,10.70
2018-11-07T03:45:30.170Z,10.74
2018-11-07T03:47:56.477Z,10.73
2018-11-07T03:50:22.782Z,10.78
2018-11-07T03:52:49.106Z,10.75
2018-11-07T03:55:15.417Z,10.68
2018-11-07T03:57:41.722Z,10.64
2018-11-07T04:00:08.054Z,10.55
2018-11-07T04:02:34.383Z,10.48
2018-11-07T04:05:00.693Z,10.37
2018-11-07T04:07:27.015Z,10.26
2018-11-07T04:09:53.350Z,10.06
2018-11-07T04:12:19.670Z,9.98
2018-11-07T04:14:46.009Z,9.90
2018-11-07T04:17:12.340Z,9.93
2018-11-07T04:19:38.644Z,9.86
2018-11-07T04:22:04.959Z,9.80
2018-11-07T04:24:31.278Z,9.76
2018-11-07T04:26:57.582Z,9.76
2018-11-07T04:29:23.911Z,9.76
2018-11-07T04:31:50.210Z,9.74
2018-11-07T04:34:16.543Z,9.69
2018-11-07T04:36:42.905Z,9.65
2018-11-07T04:39:09.242Z,9.56
2018-11-07T04:41:35.544Z,9.52
2018-11-07T04:44:01.872Z,9.35
2018-11-07T04:46:28.195Z,9.25
2018-11-07T04:48:54.505Z,9.27
2018-11-07T04:51:20.845Z,9.20
2018-11-07T04:53:47.150Z,9.11
2018-11-07T04:56:13.453Z,9.12
2018-11-07T04:58:39.783Z,9.05
2018-11-07T05:01:06.113Z,9.06
2018-11-07T05:03:32.425Z,9.14
2018-11-07T05:05:58.731Z,9.04
2018-11-07T05:08:25.083Z,9.00
2018-11-07T05:10:51.358Z,9.02
2018-11-07T05:13:17.689Z,9.05
2018-11-07T05:15:43.991Z,9.09
2018-11-07T05:18:10.297Z,9.08
2018-11-07T05:20:36.595Z,9.05
2018-11-07T05:23:02.896Z,8.98
2018-11-07T05:25:29.226Z,8.94
2018-11-07T05:27:55.558Z,9.04
2018-11-07T05:30:21.885Z,9.10
2018-11-07T05:32:48.212Z,9.18
2018-11-07T05:35:14.519Z,9.28
2018-11-07T05:37:40.841Z,9.34
2018-11-07T05:40:07.145Z,9.38
2018-11-07T05:42:33.475Z,9.37
2018-11-07T05:44:59.781Z,9.41
2018-11-07T05:47:26.101Z,9.41
2018-11-07T05:49:52.425Z,9.42
2018-11-07T05:52:18.749Z,9.48
2018-11-07T05:54:45.077Z,9.53
2018-11-07T05:57:11.375Z,9.53
2018-11-07T05:59:37.705Z,9.56
2018-11-07T06:02:04.033Z,9.52
2018-11-07T06:04:30.356Z,9.56
2018-11-07T06:06:56.651Z,9.57
2018-11-07T06:09:22.956Z,9.56
2018-11-07T06:11:49.264Z,9.60
2018-11-07T06:14:15.562Z,9.63
2018-11-07T06:16:41.865Z,9.70
2018-11-07T06:19:08.168Z,9.70
2018-11-07T06:21:34.470Z,9.76
2018-11-07T06:24:00.798Z,9.83
2018-11-07T06:26:27.100Z,9.88
2018-11-07T06:28:53.413Z,9.98
2018-11-07T06:31:19.731Z,10.07
2018-11-07T06:33:46.062Z,10.19
2018-11-07T06:36:12.387Z,10.26
2018-11-07T06:38:38.693Z,10.33
2018-11-07T06:41:05.026Z,10.68
2018-11-07T06:43:31.331Z,11.15
2018-11-07T06:45:57.632Z,11.11
2018-11-07T06:48:23.994Z,11.03
2018-11-07T06:50:50.303Z,10.89
2018-11-07T06:53:16.625Z,10.77
2018-11-07T06:55:43.020Z,10.67
2018-11-07T06:58:09.261Z,10.65
2018-11-07T07:00:35.632Z,10.69
2018-11-07T07:03:01.959Z,10.68
2018-11-07T07:05:28.286Z,10.73
2018-11-07T07:07:54.613Z,10.82
2018-11-07T07:10:20.919Z,10.93
2018-11-07T07:12:47.224Z,11.02
2018-11-07T07:15:13.554Z,11.32
2018-11-07T07:17:39.911Z,11.60
2018-11-07T07:20:06.166Z,11.58
2018-11-07T07:22:32.571Z,11.69
2018-11-07T07:24:58.897Z,11.68
2018-11-07T07:27:25.205Z,11.60
2018-11-07T07:29:51.536Z,11.85
2018-11-07T07:32:17.840Z,11.99
2018-11-07T07:34:44.139Z,12.28
2018-11-07T07:37:10.473Z,12.46
2018-11-07T07:39:36.772Z,12.76
2018-11-07T07:42:03.085Z,13.01
2018-11-07T07:44:29.389Z,12.84
2018-11-07T07:46:55.714Z,13.35
2018-11-07T07:49:22.084Z,13.38
2018-11-07T07:51:48.374Z,13.49
2018-11-07T07:54:14.698Z,13.34
2018-11-07T07:56:41.028Z,13.92
2018-11-07T07:59:07.333Z,14.09
2018-11-07T08:01:33.641Z,14.07
2018-11-07T08:04:00.006Z,14.06
2018-11-07T08:06:26.328Z,14.14
2018-11-07T08:08:52.632Z,14.21
2018-11-07T08:11:18.957Z,14.04
2018-11-07T08:13:45.341Z,14.29
2018-11-07T08:16:11.594Z,14.36
2018-11-07T08:18:37.919Z,14.17
2018-11-07T08:21:04.237Z,14.10
2018-11-07T08:23:30.529Z,14.32
2018-11-07T08:25:56.858Z,14.74
2018-11-07T08:28:23.169Z,14.87
2018-11-07T08:30:49.513Z,15.36
2018-11-07T08:33:15.820Z,15.58
2018-11-07T08:35:42.120Z,15.55
2018-11-07T08:38:08.451Z,15.40
2018-11-07T08:40:34.751Z,15.47
2018-11-07T08:43:01.058Z,15.68
2018-11-07T08:45:27.387Z,15.89
2018-11-07T08:47:53.727Z,15.85
2018-11-07T08:50:19.992Z,15.43
2018-11-07T08:52:46.317Z,15.49
2018-11-07T08:55:12.752Z,16.01
2018-11-07T08:57:38.975Z,16.50
2018-11-07T09:00:05.311Z,16.61
2018-11-07T09:02:31.615Z,16.72
2018-11-07T09:04:57.948Z,16.63
2018-11-07T09:07:24.253Z,16.10
2018-11-07T09:09:50.584Z,16.68
2018-11-07T09:12:16.952Z,16.69
2018-11-07T09:14:43.215Z,16.87
2018-11-07T09:17:09.542Z,16.93
2018-11-07T09:19:35.858Z,16.77
2018-11-07T09:22:02.154Z,17.29
2018-11-07T09:24:28.531Z,17.41
2018-11-07T09:26:54.782Z,17.37
2018-11-07T09:29:21.166Z,17.34
2018-11-07T09:31:47.441Z,17.45
2018-11-07T09:34:13.741Z,17.23
2018-11-07T09:36:40.074Z,17.52
2018-11-07T09:39:06.379Z,17.78
2018-11-07T09:41:32.685Z,17.69
2018-11-07T09:43:58.990Z,17.67
2018-11-07T09:46:25.288Z,18.07
2018-11-07T09:48:51.614Z,18.32
2018-11-07T09:51:17.918Z,17.71
2018-11-07T09:53:44.252Z,17.31
2018-11-07T09:56:10.555Z,16.83
2018-11-07T09:58:36.854Z,17.35
2018-11-07T10:01:03.186Z,17.69
2018-11-07T10:03:29.491Z,17.96
2018-11-07T10:05:55.820Z,17.98
2018-11-07T10:08:22.148Z,18.08
2018-11-07T10:10:48.480Z,18.02
2018-11-07T10:13:14.806Z,18.48
2018-11-07T10:15:41.114Z,18.80
2018-11-07T10:18:07.415Z,18.05
2018-11-07T10:20:33.765Z,17.81
2018-11-07T10:23:00.076Z,18.41
2018-11-07T10:25:26.404Z,18.65
2018-11-07T10:27:53.101Z,18.32
2018-11-07T10:30:19.205Z,18.79
2018-11-07T10:32:45.353Z,18.49
2018-11-07T10:35:11.677Z,18.35
2018-11-07T10:37:38.031Z,19.06
2018-11-07T10:40:04.373Z,18.84
2018-11-07T10:42:30.677Z,18.73
2018-11-07T10:44:57.024Z,18.13
2018-11-07T10:47:23.324Z,18.01
2018-11-07T10:49:49.645Z,18.36
2018-11-07T10:52:15.973Z,18.47
2018-11-07T10:54:42.292Z,18.83
2018-11-07T10:57:08.621Z,19.10
2018-11-07T10:59:34.923Z,18.90
2018-11-07T11:02:01.227Z,19.11
2018-11-07T11:04:27.555Z,19.26
2018-11-07T11:06:53.857Z,18.81
2018-11-07T11:09:20.152Z,19.23
2018-11-07T11:11:46.456Z,19.58
2018-11-07T11:14:12.765Z,19.70
2018-11-07T11:16:39.125Z,20.19
2018-11-07T11:19:05.424Z,19.63
2018-11-07T11:21:31.749Z,18.79
2018-11-07T11:23:58.062Z,18.70
2018-11-07T11:26:24.366Z,18.96
2018-11-07T11:28:50.709Z,19.18
2018-11-07T11:31:17.036Z,19.33
2018-11-07T11:33:43.348Z,18.90
2018-11-07T11:36:09.636Z,19.17
2018-11-07T11:38:35.937Z,19.74
2018-11-07T11:41:02.331Z,19.32
2018-11-07T11:43:28.599Z,19.19
2018-11-07T11:45:54.923Z,18.79
2018-11-07T11:48:21.224Z,19.13
2018-11-07T11:50:47.550Z,19.17
2018-11-07T11:53:13.856Z,18.56
2018-11-07T11:55:40.183Z,18.96
2018-11-07T11:58:06.480Z,19.84
2018-11-07T12:00:32.852Z,19.69
2018-11-07T12:02:59.116Z,19.54
2018-11-07T12:05:25.429Z,19.22
2018-11-07T12:07:51.755Z,19.18
2018-11-07T12:10:18.084Z,19.13
2018-11-07T12:12:44.412Z,18.99
2018-11-07T12:15:10.773Z,19.06
2018-11-07T12:17:37.058Z,19.60
2018-11-07T12:20:03.330Z,20.20
2018-11-07T12:22:29.652Z,19.28
2018-11-07T12:24:55.979Z,19.37
2018-11-07T12:27:22.282Z,19.56
2018-11-07T12:29:48.635Z,19.21
2018-11-07T12:32:14.944Z,18.92
2018-11-07T12:34:41.274Z,19.03
2018-11-07T12:37:07.602Z,18.64
2018-11-07T12:39:33.932Z,18.61
2018-11-07T12:42:00.262Z,18.62
2018-11-07T12:44:26.590Z,18.83
2018-11-07T12:46:52.888Z,19.15
2018-11-07T12:49:19.213Z,19.29
2018-11-07T12:51:45.526Z,19.02
2018-11-07T12:54:11.856Z,18.79
2018-11-07T12:56:38.169Z,18.52
2018-11-07T12:59:04.465Z,18.46
2018-11-07T13:01:30.795Z,18.53
2018-11-07T13:03:57.119Z,18.54
2018-11-07T13:06:23.447Z,18.47
2018-11-07T13:08:49.752Z,18.24
2018-11-07T13:11:16.129Z,18.59
2018-11-07T13:13:42.385Z,18.46
2018-11-07T13:16:08.715Z,18.38
2018-11-07T13:18:35.043Z,18.17
2018-11-07T13:21:01.373Z,17.80
2018-11-07T13:23:27.712Z,17.79
2018-11-07T13:25:54.066Z,17.70
2018-11-07T13:28:20.483Z,17.20
2018-11-07T13:30:46.672Z,16.74
2018-11-07T13:33:12.999Z,16.46
2018-11-07T13:35:39.327Z,16.49
2018-11-07T13:38:05.848Z,16.65
2018-11-07T13:40:31.961Z,16.61
2018-11-07T13:42:58.284Z,16.50
2018-11-07T13:45:24.672Z,16.32
2018-11-07T13:47:50.897Z,16.12
2018-11-07T13:50:17.229Z,15.95
2018-11-07T13:52:43.554Z,15.97
2018-11-07T13:55:09.912Z,15.93
2018-11-07T13:57:36.212Z,15.85
2018-11-07T14:00:02.537Z,15.82
2018-11-07T14:02:28.841Z,15.81
2018-11-07T14:04:55.174Z,15.81
2018-11-07T14:07:21.473Z,15.81
2018-11-07T14:09:47.846Z,15.78
2018-11-07T14:12:14.144Z,15.73
2018-11-07T14:14:40.451Z,15.69
2018-11-07T14:17:06.758Z,15.61
2018-11-07T14:19:33.090Z,15.46
2018-11-07T14:21:59.397Z,15.44
2018-11-07T14:24:25.700Z,15.40
2018-11-07T14:26:52.032Z,15.33
2018-11-07T14:29:18.385Z,15.24
2018-11-07T14:31:44.706Z,15.14
2018-11-07T14:34:11.046Z,15.00
2018-11-07T14:36:37.313Z,14.93
2018-11-07T14:39:03.709Z,14.87
2018-11-07T14:41:29.970Z,14.81
2018-11-07T14:43:56.326Z,14.73
2018-11-07T14:46:22.644Z,14.67
2018-11-07T14:48:48.937Z,14.63
2018-11-07T14:51:15.236Z,14.59
2018-11-07T14:53:41.606Z,14.56
2018-11-07T14:56:07.900Z,14.51
2018-11-07T14:58:34.203Z,14.43
2018-11-07T15:01:00.515Z,14.35
2018-11-07T15:03:26.819Z,14.27
2018-11-07T15:05:53.176Z,14.22
2018-11-07T15:08:19.544Z,14.14
2018-11-07T15:10:45.811Z,14.06
2018-11-07T15:13:12.142Z,13.97
2018-11-07T15:15:38.465Z,13.88
2018-11-07T15:18:04.769Z,13.78
2018-11-07T15:20:31.080Z,13.73
2018-11-07T15:22:57.408Z,13.66
2018-11-07T15:25:23.731Z,13.61
2018-11-07T15:27:50.047Z,13.53
2018-11-07T15:30:16.349Z,13.47
2018-11-07T15:32:42.678Z,13.38
2018-11-07T15:35:08.985Z,13.30
2018-11-07T15:37:35.335Z,13.22
2018-11-07T15:40:01.724Z,13.12
2018-11-07T15:42:27.969Z,13.02
2018-11-07T15:44:54.276Z,12.95
2018-11-07T15:47:20.607Z,12.84
2018-11-07T15:49:46.940Z,12.77
2018-11-07T15:52:13.299Z,12.73
2018-11-07T15:54:39.610Z,12.68
2018-11-07T15:57:05.912Z,12.59
2018-11-07T15:59:32.243Z,12.52
2018-11-07T16:01:58.570Z,12.47
2018-11-07T16:04:24.906Z,12.39
2018-11-07T16:06:51.233Z,12.33
2018-11-07T16:09:17.534Z,12.23
2018-11-07T16:11:43.854Z,12.21
2018-11-07T16:14:10.167Z,12.18
2018-11-07T16:16:36.494Z,12.16
2018-11-07T16:19:03.105Z,12.09
2018-11-07T16:21:29.431Z,12.01
2018-11-07T16:23:55.847Z,12.02
2018-11-07T16:26:22.123Z,11.96
2018-11-07T16:28:48.542Z,11.87
2018-11-07T16:31:14.735Z,11.82
2018-11-07T16:33:41.063Z,11.77
2018-11-07T16:36:07.392Z,11.73
2018-11-07T16:38:33.753Z,11.68
2018-11-07T16:41:00.051Z,11.53
2018-11-07T16:43:26.403Z,11.48
2018-11-07T16:45:52.756Z,11.45
2018-11-07T16:48:19.082Z,11.45
2018-11-07T16:50:45.332Z,11.33
2018-11-07T16:53:11.637Z,11.21
2018-11-07T16:55:37.966Z,11.06
2018-11-07T16:58:04.293Z,10.88
2018-11-07T17:00:30.627Z,10.90
2018-11-07T17:02:57.004Z,10.83
2018-11-07T17:05:23.309Z,10.75
2018-11-07T17:07:49.602Z,10.55
2018-11-07T17:10:15.934Z,10.43
2018-11-07T17:12:42.257Z,10.37
2018-11-07T17:15:08.563Z,10.32
2018-11-07T17:17:34.899Z,10.25
2018-11-07T17:20:01.224Z,10.21
2018-11-07T17:22:27.561Z,10.21
2018-11-07T17:24:53.884Z,10.14
2018-11-07T17:27:20.207Z,10.07
2018-11-07T17:29:46.534Z,10.02
2018-11-07T17:32:12.858Z,9.99
2018-11-07T17:34:39.166Z,9.97
2018-11-07T17:37:05.479Z,9.99
2018-11-07T17:39:31.801Z,9.94
2018-11-07T17:41:58.103Z,9.92
2018-11-07T17:44:24.433Z,9.87
2018-11-07T17:46:50.752Z,9.80
2018-11-07T17:49:17.062Z,9.76
2018-11-07T17:51:43.385Z,9.72
2018-11-07T17:54:09.808Z,9.73
2018-11-07T17:56:36.170Z,9.67
2018-11-07T17:59:02.435Z,9.67
2018-11-07T18:01:28.731Z,9.66
2018-11-07T18:03:55.089Z,9.64
2018-11-07T18:06:21.401Z,9.63
2018-11-07T18:08:47.717Z,9.58
2018-11-07T18:11:14.021Z,9.52
2018-11-07T18:13:40.323Z,9.47
2018-11-07T18:16:06.625Z,9.50
2018-11-07T18:18:32.953Z,9.50
2018-11-07T18:20:59.273Z,9.49
2018-11-07T18:23:25.608Z,9.51
2018-11-07T18:25:51.905Z,9.45
2018-11-07T18:28:18.204Z,9.42
2018-11-07T18:30:44.533Z,9.41
2018-11-07T18:33:10.832Z,9.38
2018-11-07T18:35:37.264Z,9.35
2018-11-07T18:38:03.513Z,9.33
2018-11-07T18:40:29.823Z,9.32
2018-11-07T18:42:56.254Z,9.32
2018-11-07T18:45:22.484Z,9.31
2018-11-07T18:47:48.813Z,9.27
2018-11-07T18:50:15.171Z,9.21
2018-11-07T18:52:41.450Z,9.11
2018-11-07T18:55:07.749Z,8.96
2018-11-07T18:57:34.072Z,8.83
2018-11-07T19:00:00.367Z,8.85
2018-11-07T19:02:26.675Z,8.91
2018-11-07T19:04:53.036Z,8.96
2018-11-07T19:07:19.335Z,8.96
2018-11-07T19:09:45.691Z,8.97
2018-11-07T19:12:11.993Z,9.05
2018-11-07T19:14:38.321Z,8.93
2018-11-07T19:17:04.644Z,8.96
2018-11-07T19:19:30.972Z,9.04
2018-11-07T19:21:57.279Z,8.98
2018-11-07T19:24:23.600Z,8.89
2018-11-07T19:26:49.946Z,8.90
2018-11-07T19:29:16.212Z,8.96
2018-11-07T19:31:42.545Z,9.00
2018-11-07T19:34:08.873Z,9.03
2018-11-07T19:36:35.197Z,9.11
2018-11-07T19:39:01.499Z,9.06
2018-11-07T19:41:27.826Z,9.11
2018-11-07T19:43:54.150Z,9.10
2018-11-07T19:46:20.478Z,9.16
2018-11-07T19:48:46.796Z,9.18
2018-11-07T19:51:13.171Z,9.22
2018-11-07T19:53:39.517Z,9.26
2018-11-07T19:56:05.788Z,9.27
2018-11-07T19:58:32.174Z,9.29
2018-11-07T20:00:58.516Z,9.39
2018-11-07T20:03:24.798Z,9.29
2018-11-07T20:05:51.120Z,9.29
2018-11-07T20:08:17.427Z,9.27
2018-11-07T20:10:43.733Z,9.16
2018-11-07T20:13:10.032Z,9.12
2018-11-07T20:15:36.327Z,9.05
2018-11-07T20:18:02.654Z,9.06
2018-11-07T20:20:28.989Z,9.01
2018-11-07T20:22:55.410Z,9.01
2018-11-07T20:25:21.634Z,8.99
2018-11-07T20:27:47.948Z,8.93
2018-11-07T20:30:14.278Z,8.92
2018-11-07T20:32:40.609Z,8.96
2018-11-07T20:35:06.912Z,8.88
2018-11-07T20:37:33.249Z,8.89
2018-11-07T20:39:59.548Z,8.90
2018-11-07T20:42:25.850Z,8.87
2018-11-07T20:44:52.151Z,8.87
2018-11-07T20:47:18.450Z,8.88
2018-11-07T20:49:44.818Z,9.05
2018-11-07T20:52:11.120Z,9.27
2018-11-07T20:54:37.445Z,9.37
2018-11-07T20:57:03.750Z,9.38
2018-11-07T20:59:30.050Z,9.30
2018-11-07T21:01:56.383Z,9.22
2018-11-07T21:04:22.667Z,9.17
2018-11-07T21:06:48.965Z,9.08
2018-11-07T21:09:15.292Z,9.03
2018-11-07T21:11:41.716Z,8.99
2018-11-07T21:14:08.017Z,8.97
2018-11-07T21:16:34.377Z,8.98
2018-11-07T21:19:00.699Z,8.95
2018-11-07T21:21:27.004Z,8.87
2018-11-07T21:23:53.335Z,8.79
2018-11-07T21:26:19.665Z,8.75
2018-11-07T21:28:46.048Z,8.71
2018-11-07T21:31:12.439Z,8.71
2018-11-07T21:33:38.661Z,8.67
2018-11-07T21:36:04.989Z,8.63
2018-11-07T21:38:31.295Z,8.60
2018-11-07T21:40:57.595Z,8.55
2018-11-07T21:43:23.892Z,8.53
2018-11-07T21:45:50.322Z,8.58
2018-11-07T21:48:16.648Z,8.66
2018-11-07T21:50:42.974Z,8.72
2018-11-07T21:53:09.304Z,8.71
2018-11-07T21:55:35.604Z,8.64
2018-11-07T21:58:01.932Z,8.54
2018-11-07T22:00:28.240Z,8.51
2018-11-07T22:02:54.672Z,8.47
2018-11-07T22:05:20.894Z,8.47
2018-11-07T22:07:47.224Z,8.46
2018-11-07T22:10:13.550Z,8.43
2018-11-07T22:12:39.853Z,8.38
2018-11-07T22:15:06.152Z,8.29
2018-11-07T22:17:32.457Z,8.23
2018-11-07T22:19:58.807Z,8.18
2018-11-07T22:22:25.108Z,8.17
2018-11-07T22:24:51.417Z,8.19
2018-11-07T22:27:17.747Z,8.23
2018-11-07T22:29:44.056Z,8.24
2018-11-07T22:32:10.359Z,8.25
2018-11-07T22:34:36.660Z,8.29
2018-11-07T22:37:02.985Z,8.26
2018-11-07T22:39:29.300Z,8.24
2018-11-07T22:41:55.664Z,8.18
2018-11-07T22:44:21.964Z,8.11
2018-11-07T22:46:48.289Z,8.11
2018-11-07T22:49:14.599Z,8.07
2018-11-07T22:51:40.905Z,8.05
2018-11-07T22:54:07.216Z,8.03
2018-11-07T22:56:33.569Z,8.03
2018-11-07T22:58:59.891Z,8.04
2018-11-07T23:01:26.202Z,8.03
2018-11-07T23:03:52.586Z,8.01
2018-11-07T23:06:18.830Z,7.98
2018-11-07T23:08:45.143Z,7.97
2018-11-07T23:11:11.477Z,7.97
2018-11-07T23:13:37.808Z,7.91
2018-11-07T23:16:04.135Z,7.89
2018-11-07T23:18:30.534Z,7.86
2018-11-07T23:20:56.794Z,7.81
2018-11-07T23:23:23.126Z,7.78
2018-11-07T23:25:49.452Z,7.81
2018-11-07T23:28:15.777Z,7.78
2018-11-07T23:30:42.087Z,7.77
2018-11-07T23:33:08.389Z,7.75
2018-11-07T23:35:34.729Z,7.75
2018-11-07T23:38:01.072Z,7.74
2018-11-07T23:40:27.374Z,7.73
2018-11-07T23:42:53.672Z,7.69
2018-11-07T23:45:19.983Z,7.60
2018-11-07T23:47:46.306Z,7.60
2018-11-07T23:50:12.680Z,7.59
2018-11-07T23:52:38.979Z,7.61
2018-11-07T23:55:05.285Z,7.61
2018-11-07T23:57:31.654Z,7.62
2018-11-07T23:59:57.933Z,7.65
